createdAt,value
2023-02-09T00:00:06.720Z,52.40
2023-02-09T00:02:36.545Z,49.77
2023-02-09T00:05:03.448Z,48.43
2023-02-09T00:07:30.265Z,53.90
2023-02-09T00:09:57.124Z,42.90
2023-02-09T00:12:42.425Z,50.67
2023-02-09T00:15:09.617Z,46.27
2023-02-09T00:17:37.213Z,47.80
2023-02-09T00:20:05.897Z,47.37
2023-02-09T00:22:33.202Z,50.37
2023-02-09T00:25:00.228Z,50.83
2023-02-09T00:27:27.130Z,50.57
2023-02-09T00:29:54.027Z,49.53
2023-02-09T00:32:20.888Z,49.83
2023-02-09T00:34:47.802Z,44.70
2023-02-09T00:37:14.651Z,50.13
2023-02-09T00:39:41.477Z,49.90
2023-02-09T00:42:08.390Z,48.47
2023-02-09T00:44:35.983Z,50.40
2023-02-09T00:47:03.444Z,49.40
2023-02-09T00:49:31.140Z,42.93
2023-02-09T00:51:58.177Z,44.87
2023-02-09T00:54:25.297Z,46.77
2023-02-09T00:56:52.093Z,45.77
2023-02-09T00:59:18.950Z,49.07
2023-02-09T01:01:45.764Z,47.40
2023-02-09T01:04:12.660Z,51.43
2023-02-09T01:06:39.527Z,51.87
2023-02-09T01:09:06.321Z,47.40
2023-02-09T01:11:33.238Z,51.97
2023-02-09T01:14:00.856Z,45.30
2023-02-09T01:16:29.010Z,45.97
2023-02-09T01:18:56.126Z,47.63
2023-02-09T01:21:24.262Z,50.70
2023-02-09T01:23:51.178Z,48.77
2023-02-09T01:26:18.788Z,54.40
2023-02-09T01:28:49.431Z,49.13
2023-02-09T01:31:21.222Z,44.73
2023-02-09T01:33:48.410Z,47.17
2023-02-09T01:36:15.390Z,48.97
2023-02-09T01:38:42.211Z,52.33
2023-02-09T01:41:09.329Z,45.73
2023-02-09T01:43:50.508Z,48.10
2023-02-09T01:46:17.425Z,45.83
2023-02-09T01:48:44.620Z,49.40
2023-02-09T01:51:12.031Z,45.17
2023-02-09T01:53:38.993Z,47.87
2023-02-09T01:56:11.185Z,43.67
2023-02-09T01:58:39.006Z,48.37
2023-02-09T02:01:09.096Z,48.73
2023-02-09T02:03:36.000Z,46.77
2023-02-09T02:06:07.602Z,43.53
2023-02-09T02:08:44.163Z,47.27
2023-02-09T02:11:11.196Z,44.37
2023-02-09T02:13:38.133Z,47.23
2023-02-09T02:16:29.668Z,49.20
2023-02-09T02:19:07.866Z,49.37
2023-02-09T02:22:06.470Z,50.00
2023-02-09T02:24:39.245Z,45.80
2023-02-09T02:27:12.334Z,48.10
2023-02-09T02:29:51.412Z,50.97
2023-02-09T02:32:56.403Z,46.20
2023-02-09T02:35:51.520Z,46.53
2023-02-09T02:38:35.677Z,46.50
2023-02-09T02:41:20.232Z,50.07
2023-02-09T02:43:59.749Z,44.40
2023-02-09T02:46:30.806Z,42.80
2023-02-09T02:49:04.982Z,43.73
2023-02-09T02:51:53.793Z,48.73
2023-02-09T02:54:34.292Z,44.83
2023-02-09T02:57:05.943Z,45.97
2023-02-09T02:59:38.740Z,47.87
2023-02-09T03:02:10.882Z,48.20
2023-02-09T03:04:40.139Z,44.83
2023-02-09T03:07:08.379Z,46.67
2023-02-09T03:09:38.350Z,50.40
2023-02-09T03:12:17.584Z,49.67
2023-02-09T03:14:53.953Z,48.87
2023-02-09T03:17:50.108Z,45.30
2023-02-09T03:20:27.073Z,45.53
2023-02-09T03:23:00.340Z,43.53
2023-02-09T03:25:34.945Z,48.07
2023-02-09T03:28:09.250Z,47.60
2023-02-09T03:30:42.070Z,44.23
2023-02-09T03:33:22.290Z,44.80
2023-02-09T03:35:52.115Z,45.63
2023-02-09T03:38:19.003Z,41.80
2023-02-09T03:40:46.265Z,49.57
2023-02-09T03:43:13.568Z,46.67
2023-02-09T03:45:40.595Z,53.87
2023-02-09T03:48:07.862Z,42.67
2023-02-09T03:50:36.316Z,46.33
2023-02-09T03:53:06.618Z,46.23
2023-02-09T03:55:34.545Z,43.43
2023-02-09T03:58:01.336Z,48.20
2023-02-09T04:00:28.257Z,48.53
2023-02-09T04:02:56.371Z,48.60
2023-02-09T04:05:23.279Z,48.63
2023-02-09T04:07:50.290Z,44.27
2023-02-09T04:10:17.157Z,48.33
2023-02-09T04:12:43.997Z,51.80
2023-02-09T04:15:10.787Z,47.87
2023-02-09T04:17:37.795Z,48.40
2023-02-09T04:20:05.025Z,51.37
2023-02-09T04:22:31.834Z,53.10
2023-02-09T04:24:58.936Z,55.27
2023-02-09T04:27:27.616Z,51.17
2023-02-09T04:29:57.153Z,56.70
2023-02-09T04:32:24.011Z,49.87
2023-02-09T04:34:50.790Z,49.97
2023-02-09T04:37:24.073Z,49.60
2023-02-09T04:39:54.022Z,49.33
2023-02-09T04:42:20.861Z,51.60
2023-02-09T04:44:47.638Z,50.03
2023-02-09T04:47:14.434Z,60.60
2023-02-09T04:49:42.648Z,51.97
2023-02-09T04:52:09.503Z,51.77
2023-02-09T04:54:36.387Z,53.13
2023-02-09T04:57:21.735Z,51.90
2023-02-09T04:59:48.721Z,51.63
2023-02-09T05:02:15.514Z,47.73
2023-02-09T05:04:42.286Z,52.77
2023-02-09T05:07:09.377Z,53.47
2023-02-09T05:09:37.232Z,56.40
2023-02-09T05:12:04.520Z,52.57
2023-02-09T05:14:31.320Z,50.50
2023-02-09T05:16:58.106Z,56.20
2023-02-09T05:19:24.879Z,54.80
2023-02-09T05:21:51.741Z,58.10
2023-02-09T05:24:18.646Z,53.00
2023-02-09T05:26:45.532Z,53.57
2023-02-09T05:29:12.353Z,56.63
2023-02-09T05:31:39.294Z,57.10
2023-02-09T05:34:06.183Z,53.13
2023-02-09T05:36:32.961Z,50.73
2023-02-09T05:38:59.884Z,63.23
2023-02-09T05:41:45.445Z,53.90
2023-02-09T05:44:12.279Z,53.33
2023-02-09T05:46:39.097Z,52.30
2023-02-09T05:49:05.854Z,60.70
2023-02-09T05:51:32.652Z,51.00
2023-02-09T05:53:59.486Z,52.73
2023-02-09T05:56:26.322Z,50.13
2023-02-09T05:58:53.129Z,59.07
2023-02-09T06:01:19.906Z,55.20
2023-02-09T06:03:49.827Z,56.63
2023-02-09T06:06:16.706Z,51.03
2023-02-09T06:08:43.511Z,56.10
2023-02-09T06:11:10.354Z,53.73
2023-02-09T06:13:37.169Z,49.83
2023-02-09T06:16:04.062Z,52.57
2023-02-09T06:18:30.899Z,55.23
2023-02-09T06:20:57.726Z,57.80
2023-02-09T06:23:26.132Z,54.30
2023-02-09T06:25:53.463Z,59.10
2023-02-09T06:28:20.630Z,56.93
2023-02-09T06:30:54.688Z,52.43
2023-02-09T06:33:24.524Z,55.13
2023-02-09T06:35:52.389Z,54.20
2023-02-09T06:38:19.819Z,52.60
2023-02-09T06:40:47.263Z,50.63
2023-02-09T06:43:14.264Z,56.47
2023-02-09T06:45:41.525Z,58.93
2023-02-09T06:48:08.948Z,57.90
2023-02-09T06:50:37.147Z,53.70
2023-02-09T06:53:04.568Z,58.53
2023-02-09T06:55:31.857Z,56.60
2023-02-09T06:57:58.683Z,50.33
2023-02-09T07:00:25.796Z,56.77
2023-02-09T07:02:53.516Z,59.23
2023-02-09T07:05:21.066Z,59.33
2023-02-09T07:07:47.880Z,56.67
2023-02-09T07:10:16.737Z,60.43
2023-02-09T07:12:43.848Z,58.50
2023-02-09T07:15:12.402Z,55.63
2023-02-09T07:17:39.846Z,56.00
2023-02-09T07:20:07.355Z,55.33
2023-02-09T07:22:34.223Z,63.50
2023-02-09T07:25:01.286Z,58.37
2023-02-09T07:27:28.201Z,57.47
2023-02-09T07:29:55.100Z,62.10
2023-02-09T07:32:23.939Z,60.60
2023-02-09T07:34:50.757Z,63.13
2023-02-09T07:37:17.592Z,56.17
2023-02-09T07:39:44.821Z,58.93
2023-02-09T07:42:11.880Z,57.73
2023-02-09T07:44:38.706Z,63.13
2023-02-09T07:47:05.567Z,57.23
2023-02-09T07:49:35.128Z,64.83
2023-02-09T07:52:02.147Z,56.30
2023-02-09T07:54:30.351Z,59.30
2023-02-09T07:56:57.286Z,59.83
2023-02-09T07:59:24.117Z,57.97
2023-02-09T08:01:52.052Z,57.03
2023-02-09T08:04:18.994Z,54.13
2023-02-09T08:06:46.906Z,54.77
2023-02-09T08:09:16.834Z,58.40
2023-02-09T08:12:01.954Z,56.00
2023-02-09T08:14:35.668Z,51.83
2023-02-09T08:17:20.147Z,52.53
2023-02-09T08:20:15.266Z,59.80
2023-02-09T08:22:46.690Z,57.20
2023-02-09T08:25:16.251Z,54.97
2023-02-09T08:27:44.268Z,51.93
2023-02-09T08:30:13.126Z,60.33
2023-02-09T08:32:40.252Z,54.97
2023-02-09T08:35:12.862Z,56.90
2023-02-09T08:37:39.697Z,55.87
2023-02-09T08:40:07.034Z,52.87
2023-02-09T08:42:33.848Z,54.73
2023-02-09T08:45:00.897Z,56.80
2023-02-09T08:47:27.736Z,55.10
2023-02-09T08:49:54.631Z,52.50
2023-02-09T08:52:21.625Z,51.60
2023-02-09T08:54:48.543Z,56.03
2023-02-09T08:57:15.425Z,56.97
2023-02-09T08:59:42.252Z,52.73
2023-02-09T09:02:09.125Z,54.23
2023-02-09T09:04:35.957Z,48.20
2023-02-09T09:07:02.844Z,55.50
2023-02-09T09:09:29.642Z,53.87
2023-02-09T09:11:56.945Z,50.90
2023-02-09T09:14:23.833Z,49.63
2023-02-09T09:16:50.720Z,49.27
2023-02-09T09:19:17.562Z,51.47
2023-02-09T09:21:44.406Z,48.93
2023-02-09T09:24:11.231Z,47.73
2023-02-09T09:26:38.185Z,48.57
2023-02-09T09:29:05.016Z,50.60
2023-02-09T09:31:33.541Z,50.13
2023-02-09T09:34:00.485Z,52.40
2023-02-09T09:36:27.337Z,47.13
2023-02-09T09:38:55.781Z,47.83
2023-02-09T09:41:28.360Z,44.87
2023-02-09T09:43:55.936Z,47.43
2023-02-09T09:46:36.616Z,46.33
2023-02-09T09:49:03.987Z,47.00
2023-02-09T09:51:42.286Z,46.20
2023-02-09T09:54:19.958Z,43.50
2023-02-09T09:56:47.356Z,40.57
2023-02-09T09:59:20.931Z,42.90
2023-02-09T10:01:50.715Z,41.87
2023-02-09T10:04:17.777Z,42.23
2023-02-09T10:06:47.427Z,42.93
2023-02-09T10:09:28.638Z,39.60
2023-02-09T10:12:06.729Z,41.70
2023-02-09T10:14:33.597Z,40.17
2023-02-09T10:17:00.432Z,38.40
2023-02-09T10:19:29.223Z,39.50
2023-02-09T10:21:56.059Z,39.97
2023-02-09T10:24:32.175Z,35.40
2023-02-09T10:27:24.996Z,38.23
2023-02-09T10:29:56.413Z,40.03
2023-02-09T10:32:39.893Z,36.43
2023-02-09T10:35:25.692Z,36.43
2023-02-09T10:38:00.828Z,36.93
2023-02-09T10:40:32.339Z,36.10
2023-02-09T10:43:05.868Z,36.80
2023-02-09T10:45:37.634Z,36.47
2023-02-09T10:48:25.553Z,35.73
2023-02-09T10:51:08.535Z,32.27
2023-02-09T10:54:00.989Z,33.07
2023-02-09T10:56:41.955Z,32.80
2023-02-09T10:59:21.306Z,32.40
2023-02-09T11:02:00.068Z,35.93
2023-02-09T11:04:36.362Z,30.97
2023-02-09T11:07:10.943Z,32.77
2023-02-09T11:09:45.634Z,36.00
2023-02-09T11:12:13.513Z,32.63
2023-02-09T11:14:42.516Z,33.03
2023-02-09T11:17:25.561Z,35.47
2023-02-09T11:19:58.891Z,30.77
2023-02-09T11:22:52.166Z,30.67
2023-02-09T11:25:30.587Z,37.23
2023-02-09T11:28:16.021Z,33.13
2023-02-09T11:31:00.806Z,33.03
2023-02-09T11:34:05.065Z,35.10
2023-02-09T11:36:40.541Z,35.40
2023-02-09T11:39:23.035Z,36.63
2023-02-09T11:42:14.215Z,33.00
2023-02-09T11:44:58.898Z,35.60
2023-02-09T11:47:53.644Z,31.47
2023-02-09T11:50:44.383Z,30.87
2023-02-09T11:53:17.612Z,32.27
2023-02-09T11:55:57.720Z,30.23
2023-02-09T11:58:36.500Z,30.50
2023-02-09T12:01:26.234Z,28.93
2023-02-09T12:04:05.678Z,33.03
2023-02-09T12:06:54.927Z,29.47
2023-02-09T12:09:45.396Z,32.10
2023-02-09T12:12:29.015Z,27.07
2023-02-09T12:15:07.087Z,27.93
2023-02-09T12:17:54.073Z,27.97
2023-02-09T12:20:41.125Z,30.70
2023-02-09T12:23:10.901Z,29.33
2023-02-09T12:25:51.446Z,28.60
2023-02-09T12:28:38.028Z,26.43
2023-02-09T12:31:10.219Z,26.73
2023-02-09T12:34:02.693Z,23.63
2023-02-09T12:36:34.580Z,20.37
2023-02-09T12:39:23.696Z,21.57
2023-02-09T12:41:50.770Z,19.70
2023-02-09T12:44:18.401Z,21.60
2023-02-09T12:46:45.366Z,18.60
2023-02-09T12:49:12.169Z,20.17
2023-02-09T12:51:44.436Z,22.00
2023-02-09T12:54:41.668Z,21.60
2023-02-09T12:57:18.909Z,21.57
2023-02-09T12:59:59.693Z,19.43
2023-02-09T13:02:30.166Z,17.43
2023-02-09T13:05:14.590Z,20.20
2023-02-09T13:07:50.509Z,20.27
2023-02-09T13:10:22.039Z,20.13
2023-02-09T13:13:10.458Z,18.73
2023-02-09T13:16:06.982Z,19.07
2023-02-09T13:19:09.878Z,17.47
2023-02-09T13:22:01.477Z,20.00
2023-02-09T13:24:53.605Z,17.80
2023-02-09T13:27:26.026Z,17.80
2023-02-09T13:29:55.546Z,19.47
2023-02-09T13:33:03.190Z,21.67
2023-02-09T13:35:35.129Z,20.97
2023-02-09T13:38:15.953Z,22.03
2023-02-09T13:40:52.166Z,19.50
2023-02-09T13:43:40.657Z,19.63
2023-02-09T13:46:22.807Z,17.40
2023-02-09T13:48:49.885Z,18.13
2023-02-09T13:51:19.741Z,17.83
2023-02-09T13:53:58.173Z,18.73
2023-02-09T13:56:27.224Z,19.33
2023-02-09T13:58:54.975Z,18.50
2023-02-09T14:01:28.636Z,20.50
2023-02-09T14:04:07.762Z,20.83
2023-02-09T14:06:44.322Z,21.00
2023-02-09T14:09:20.889Z,20.57
2023-02-09T14:12:09.688Z,17.17
2023-02-09T14:15:07.336Z,17.43
2023-02-09T14:17:35.706Z,15.83
2023-02-09T14:20:03.429Z,17.07
2023-02-09T14:22:34.677Z,20.13
2023-02-09T14:25:05.966Z,19.60
2023-02-09T14:27:36.197Z,17.00
2023-02-09T14:30:03.361Z,17.40
2023-02-09T14:32:33.695Z,17.20
2023-02-09T14:35:40.660Z,17.23
2023-02-09T14:38:38.450Z,16.87
2023-02-09T14:41:37.870Z,20.03
2023-02-09T14:44:08.916Z,17.30
2023-02-09T14:46:49.219Z,18.30
2023-02-09T14:49:16.485Z,18.50
2023-02-09T14:51:44.073Z,21.80
2023-02-09T14:54:24.207Z,18.40
2023-02-09T14:56:52.693Z,20.80
2023-02-09T14:59:21.026Z,19.77
2023-02-09T15:01:50.435Z,22.60
2023-02-09T15:04:17.433Z,18.87
2023-02-09T15:06:46.768Z,21.33
2023-02-09T15:09:24.636Z,24.30
2023-02-09T15:12:07.248Z,21.97
2023-02-09T15:14:40.253Z,22.57
2023-02-09T15:17:13.958Z,21.67
2023-02-09T15:19:41.444Z,22.73
2023-02-09T15:22:08.808Z,23.80
2023-02-09T15:24:36.155Z,24.50
2023-02-09T15:27:03.425Z,23.93
2023-02-09T15:29:39.806Z,25.03
2023-02-09T15:32:15.425Z,24.53
2023-02-09T15:34:42.758Z,28.40
2023-02-09T15:37:17.291Z,24.87
2023-02-09T15:39:44.256Z,26.03
2023-02-09T15:42:34.655Z,26.93
2023-02-09T15:45:36.521Z,25.47
2023-02-09T15:48:04.845Z,24.67
2023-02-09T15:50:40.117Z,28.60
2023-02-09T15:53:09.515Z,28.40
2023-02-09T15:55:37.496Z,27.27
2023-02-09T15:58:11.509Z,26.50
2023-02-09T16:00:38.397Z,30.57
2023-02-09T16:03:16.812Z,29.97
2023-02-09T16:05:45.014Z,26.47
2023-02-09T16:08:26.794Z,25.37
2023-02-09T16:10:54.321Z,24.83
2023-02-09T16:13:21.428Z,26.50
2023-02-09T16:15:48.721Z,29.10
2023-02-09T16:18:16.009Z,34.97
2023-02-09T16:20:47.148Z,28.10
2023-02-09T16:23:21.713Z,25.07
2023-02-09T16:25:53.155Z,26.53
2023-02-09T16:28:21.548Z,30.03
2023-02-09T16:30:51.114Z,26.83
2023-02-09T16:33:18.479Z,29.50
2023-02-09T16:35:50.217Z,29.83
2023-02-09T16:38:19.658Z,31.50
2023-02-09T16:40:46.879Z,30.20
2023-02-09T16:43:14.956Z,27.40
2023-02-09T16:45:53.946Z,27.93
2023-02-09T16:48:31.565Z,27.03
2023-02-09T16:50:58.883Z,27.20
2023-02-09T16:53:32.966Z,28.37
2023-02-09T16:56:10.162Z,28.37
2023-02-09T16:58:38.220Z,28.10
2023-02-09T17:01:49.207Z,31.03
2023-02-09T17:04:16.507Z,28.00
2023-02-09T17:06:44.998Z,28.37
2023-02-09T17:09:15.846Z,30.80
2023-02-09T17:11:42.945Z,27.87
2023-02-09T17:14:09.960Z,31.00
2023-02-09T17:16:39.368Z,28.33
2023-02-09T17:19:15.913Z,28.73
2023-02-09T17:21:43.554Z,29.10
2023-02-09T17:24:16.972Z,28.97
2023-02-09T17:26:44.263Z,27.40
2023-02-09T17:29:11.971Z,27.93
2023-02-09T17:31:53.160Z,30.17
2023-02-09T17:34:22.005Z,30.13
2023-02-09T17:36:49.055Z,28.30
2023-02-09T17:39:18.788Z,27.97
2023-02-09T17:41:48.497Z,32.53
2023-02-09T17:44:32.070Z,30.87
2023-02-09T17:47:09.014Z,30.43
2023-02-09T17:49:35.768Z,28.70
2023-02-09T17:52:02.659Z,31.53
2023-02-09T17:54:29.479Z,33.17
2023-02-09T17:56:56.264Z,31.53
2023-02-09T17:59:23.361Z,28.83
2023-02-09T18:01:50.385Z,28.20
2023-02-09T18:04:24.832Z,31.07
2023-02-09T18:06:51.636Z,31.37
2023-02-09T18:09:18.470Z,30.10
2023-02-09T18:11:45.206Z,32.37
2023-02-09T18:14:16.666Z,28.60
2023-02-09T18:16:44.156Z,30.50
2023-02-09T18:19:12.235Z,27.30
2023-02-09T18:21:45.721Z,27.40
2023-02-09T18:24:13.615Z,33.97
2023-02-09T18:26:40.465Z,34.40
2023-02-09T18:29:07.484Z,33.23
2023-02-09T18:31:34.818Z,35.63
2023-02-09T18:34:02.562Z,34.23
2023-02-09T18:36:29.703Z,33.67
2023-02-09T18:38:56.489Z,32.07
2023-02-09T18:41:23.788Z,34.13
2023-02-09T18:43:53.278Z,30.80
2023-02-09T18:46:21.010Z,34.30
2023-02-09T18:48:47.845Z,38.57
2023-02-09T18:51:14.939Z,36.03
2023-02-09T18:53:42.178Z,38.47
2023-02-09T18:56:13.924Z,36.90
2023-02-09T18:58:40.741Z,37.50
2023-02-09T19:01:11.609Z,34.27
2023-02-09T19:03:38.591Z,37.27
2023-02-09T19:06:09.205Z,33.03
2023-02-09T19:08:36.025Z,37.17
2023-02-09T19:11:05.208Z,40.57
2023-02-09T19:13:36.777Z,35.57
2023-02-09T19:16:03.740Z,42.00
2023-02-09T19:18:31.624Z,38.53
2023-02-09T19:20:58.565Z,35.47
2023-02-09T19:23:25.520Z,36.33
2023-02-09T19:26:05.741Z,33.13
2023-02-09T19:28:32.678Z,37.83
2023-02-09T19:30:59.616Z,37.47
2023-02-09T19:33:26.446Z,34.23
2023-02-09T19:35:58.372Z,38.33
2023-02-09T19:38:26.722Z,40.47
2023-02-09T19:41:09.717Z,35.37
2023-02-09T19:43:38.508Z,37.67
2023-02-09T19:46:06.251Z,38.67
2023-02-09T19:48:33.571Z,32.23
2023-02-09T19:51:00.438Z,35.27
2023-02-09T19:53:27.387Z,38.70
2023-02-09T19:55:57.278Z,40.33
2023-02-09T19:58:24.448Z,33.50
2023-02-09T20:00:52.042Z,38.87
2023-02-09T20:03:19.505Z,38.20
2023-02-09T20:05:47.107Z,32.83
2023-02-09T20:08:17.914Z,35.33
2023-02-09T20:10:45.288Z,38.23
2023-02-09T20:13:15.136Z,36.27
2023-02-09T20:15:43.911Z,37.30
2023-02-09T20:18:12.171Z,39.10
2023-02-09T20:20:41.694Z,37.37
2023-02-09T20:23:09.693Z,38.67
2023-02-09T20:25:40.064Z,36.90
2023-02-09T20:28:07.003Z,39.97
2023-02-09T20:30:33.861Z,35.97
2023-02-09T20:33:01.031Z,36.97
2023-02-09T20:35:27.905Z,39.43
2023-02-09T20:37:54.769Z,38.30
2023-02-09T20:40:21.751Z,45.30
2023-02-09T20:43:07.565Z,39.23
2023-02-09T20:45:52.908Z,42.43
2023-02-09T20:48:20.244Z,41.87
2023-02-09T20:50:47.511Z,44.43
2023-02-09T20:53:14.582Z,40.37
2023-02-09T20:55:42.710Z,36.40
2023-02-09T20:58:11.881Z,38.27
2023-02-09T21:00:39.484Z,43.33
2023-02-09T21:03:07.414Z,43.23
2023-02-09T21:05:35.285Z,41.37
2023-02-09T21:08:04.522Z,44.47
2023-02-09T21:10:35.920Z,38.67
2023-02-09T21:13:04.159Z,41.60
2023-02-09T21:15:31.193Z,41.47
2023-02-09T21:17:58.234Z,45.90
2023-02-09T21:20:25.604Z,44.53
2023-02-09T21:22:52.644Z,42.93
2023-02-09T21:25:21.058Z,45.67
2023-02-09T21:27:47.923Z,42.97
2023-02-09T21:30:16.553Z,41.00
2023-02-09T21:32:43.574Z,41.57
2023-02-09T21:35:11.198Z,44.73
2023-02-09T21:37:42.911Z,48.60
2023-02-09T21:40:12.098Z,41.13
2023-02-09T21:42:39.793Z,48.63
2023-02-09T21:45:08.004Z,41.40
2023-02-09T21:47:38.623Z,43.43
2023-02-09T21:50:11.664Z,46.43
2023-02-09T21:52:38.492Z,42.87
2023-02-09T21:55:05.885Z,36.27
2023-02-09T21:57:32.780Z,42.07
2023-02-09T22:00:04.510Z,39.53
2023-02-09T22:02:31.538Z,36.63
2023-02-09T22:04:58.463Z,37.70
2023-02-09T22:07:25.317Z,37.17
2023-02-09T22:09:52.234Z,37.60
2023-02-09T22:12:19.037Z,38.17
2023-02-09T22:14:46.018Z,37.80
2023-02-09T22:17:27.863Z,36.20
2023-02-09T22:19:54.851Z,34.67
2023-02-09T22:22:21.665Z,39.93
2023-02-09T22:24:48.454Z,38.73
2023-02-09T22:27:15.343Z,37.67
2023-02-09T22:29:45.937Z,36.30
2023-02-09T22:32:12.808Z,31.93
2023-02-09T22:34:40.352Z,34.67
2023-02-09T22:37:07.250Z,33.00
2023-02-09T22:39:34.169Z,36.97
2023-02-09T22:42:01.372Z,32.40
2023-02-09T22:44:28.273Z,33.80
2023-02-09T22:46:55.088Z,33.33
2023-02-09T22:49:22.153Z,31.20
2023-02-09T22:51:50.482Z,35.30
2023-02-09T22:54:19.225Z,34.43
2023-02-09T22:56:47.047Z,32.60
2023-02-09T22:59:14.961Z,31.40
2023-02-09T23:01:42.754Z,35.13
2023-02-09T23:04:10.286Z,31.23
2023-02-09T23:06:37.167Z,36.07
2023-02-09T23:09:07.519Z,36.40
2023-02-09T23:11:37.461Z,35.23
2023-02-09T23:14:09.961Z,31.00
2023-02-09T23:16:38.556Z,35.13
2023-02-09T23:19:07.695Z,34.60
2023-02-09T23:21:37.246Z,34.37
2023-02-09T23:24:04.802Z,36.30
2023-02-09T23:26:31.777Z,31.63
2023-02-09T23:29:07.412Z,31.23
2023-02-09T23:31:34.886Z,32.20
2023-02-09T23:34:01.865Z,33.67
2023-02-09T23:36:30.905Z,29.83
2023-02-09T23:39:00.541Z,31.20
2023-02-09T23:41:28.288Z,31.43
2023-02-09T23:43:56.053Z,27.13
2023-02-09T23:46:26.751Z,32.90
2023-02-09T23:48:55.965Z,30.47
2023-02-09T23:51:35.499Z,31.77
2023-02-09T23:54:05.587Z,32.20
2023-02-09T23:56:36.969Z,32.00
2023-02-09T23:59:06.178Z,29.10
